Time;durP1;ratioP1;P1;durP2;ratioP2;P2;SDS_P1;SDS_P2;PMS_P1;PMS_P2;Temp;Humidity;BMP_temperature;BMP_pressure;BME280_temperature;BME280_humidity;BME280_pressure;Samples;Min_cycle;Max_cycle;Signal;HPM_P1;HPM_P2
2022/04/17 08:15:29;;;;;;;1.42;1.00;;;18.00;73.30;;;;;;4932606;23;20319;-75
2022/04/17 08:17:56;;;;;;;1.33;1.10;;;18.60;73.70;;;;;;4912895;29;20213;-74
2022/04/17 08:20:23;;;;;;;1.90;1.10;;;18.70;71.80;;;;;;4918448;29;20216;-71
2022/04/17 08:22:50;;;;;;;1.35;1.08;;;18.10;72.50;;;;;;4918164;29;20416;-75
2022/04/17 08:25:17;;;;;;;2.10;1.15;;;18.50;74.00;;;;;;4918023;29;20214;-73
2022/04/17 08:27:47;;;;;;;1.95;1.40;;;18.80;72.10;;;;;;4917693;29;20234;-73
2022/04/17 08:30:13;;;;;;;1.75;1.08;;;18.60;73.50;;;;;;4917295;29;20210;-74
2022/04/17 08:32:42;;;;;;;1.52;1.27;;;19.20;72.60;;;;;;4917790;29;20229;-73
2022/04/17 08:35:09;;;;;;;1.45;1.10;;;19.60;71.50;;;;;;4917700;29;20569;-73
2022/04/17 08:37:36;;;;;;;2.53;0.98;;;19.20;70.50;;;;;;4911590;29;20698;-74
2022/04/17 08:40:03;;;;;;;1.15;1.05;;;19.40;72.70;;;;;;4898185;29;20211;-76
2022/04/17 08:42:32;;;;;;;1.50;1.40;;;19.90;70.60;;;;;;4904326;29;20702;-76
2022/04/17 08:44:59;;;;;;;1.70;1.08;;;19.80;70.00;;;;;;4917298;29;20210;-75
2022/04/17 08:47:26;;;;;;;2.17;1.20;;;19.60;71.00;;;;;;4916593;29;20210;-74
2022/04/17 08:49:55;;;;;;;1.77;1.10;;;19.80;69.60;;;;;;4917232;29;20213;-75
2022/04/17 08:52:23;;;;;;;1.58;1.10;;;18.90;69.60;;;;;;4917176;29;20710;-75
2022/04/17 08:54:53;;;;;;;2.45;0.95;;;18.40;71.70;;;;;;4917519;29;20202;-75
2022/04/17 08:57:22;;;;;;;3.33;1.52;;;18.50;71.40;;;;;;4917039;29;20206;-77
2022/04/17 08:59:49;;;;;;;1.88;1.10;;;18.40;70.80;;;;;;4916902;29;20278;-73
2022/04/17 09:02:17;;;;;;;1.13;0.98;;;19.00;72.00;;;;;;4916044;29;20705;-79
2022/04/17 09:04:44;;;;;;;1.23;0.90;;;18.70;72.60;;;;;;4913567;29;20217;-73
2022/04/17 09:07:13;;;;;;;1.63;1.30;;;18.60;70.60;;;;;;4916694;29;20212;-74
2022/04/17 09:09:41;;;;;;;1.45;0.90;;;18.00;70.50;;;;;;4917097;29;20237;-74
2022/04/17 09:12:08;;;;;;;1.55;0.98;;;17.40;71.40;;;;;;4917230;29;20234;-81
2022/04/17 09:14:38;;;;;;;2.15;1.13;;;18.40;74.10;;;;;;4916513;29;20220;-74
2022/04/17 09:17:09;;;;;;;5.72;1.30;;;18.60;70.20;;;;;;4916274;29;20220;-74
2022/04/17 09:19:36;;;;;;;1.27;1.10;;;18.50;72.20;;;;;;4916521;29;20670;-72
2022/04/17 09:22:05;;;;;;;1.50;0.90;;;19.10;71.60;;;;;;4916700;29;20714;-74
2022/04/17 09:24:36;;;;;;;2.30;1.20;;;18.70;71.20;;;;;;4917127;29;20297;-73
2022/04/17 09:27:04;;;;;;;1.80;1.20;;;18.00;72.80;;;;;;4916503;29;20653;-74
2022/04/17 09:29:33;;;;;;;1.58;1.40;;;17.80;73.80;;;;;;4916459;29;20272;-78
2022/04/17 09:32:01;;;;;;;1.30;1.10;;;17.60;73.40;;;;;;4916469;29;20225;-75
2022/04/17 09:34:29;;;;;;;2.07;1.00;;;17.20;72.60;;;;;;4916009;29;20213;-74
2022/04/17 09:36:58;;;;;;;2.20;1.40;;;16.80;72.90;;;;;;4915950;29;20629;-73
2022/04/17 09:39:30;;;;;;;1.57;1.10;;;16.60;73.80;;;;;;4916651;29;20213;-72
2022/04/17 09:42:00;;;;;;;1.48;0.95;;;16.90;76.00;;;;;;4916009;29;20240;-74
2022/04/17 09:44:47;;;;;;;1.90;1.00;;;17.00;74.80;;;;;;4916471;29;20655;-73
2022/04/17 09:47:17;;;;;;;1.77;1.30;;;16.80;75.00;;;;;;4916071;29;20213;-72
2022/04/17 09:49:55;;;;;;;1.20;1.00;;;16.40;77.50;;;;;;4916273;29;20245;-74
2022/04/17 09:52:23;;;;;;;2.70;1.33;;;16.20;76.90;;;;;;4916412;29;20285;-72
2022/04/17 09:54:51;;;;;;;1.57;1.10;;;16.10;75.10;;;;;;4915978;29;20209;-72
2022/04/17 09:57:28;;;;;;;2.33;0.90;;;15.70;75.80;;;;;;4915504;29;20265;-72
2022/04/17 09:59:55;;;;;;;4.93;1.33;;;15.50;75.00;;;;;;4915899;29;20284;-73
2022/04/17 10:02:24;;;;;;;3.33;1.40;;;15.20;77.10;;;;;;4915180;29;20237;-72
2022/04/17 10:04:51;;;;;;;1.70;1.10;;;15.30;77.60;;;;;;4916004;29;20213;-74
2022/04/17 10:07:22;;;;;;;1.70;1.30;;;15.40;78.10;;;;;;4915547;29;20221;-72
2022/04/17 10:09:49;;;;;;;1.47;1.00;;;15.40;77.90;;;;;;4915659;29;20324;-71
2022/04/17 10:12:19;;;;;;;1.13;1.00;;;15.60;80.90;;;;;;4915784;29;20225;-73
2022/04/17 10:14:49;;;;;;;2.37;1.00;;;15.70;79.00;;;;;;4915897;29;20673;-72
2022/04/17 10:17:20;;;;;;;1.90;1.30;;;15.80;80.50;;;;;;4915879;29;20276;-73
2022/04/17 10:19:49;;;;;;;1.60;1.40;;;16.00;81.30;;;;;;4915678;29;20232;-73
2022/04/17 10:22:20;;;;;;;1.53;1.10;;;16.10;79.20;;;;;;4915717;29;20237;-73
2022/04/17 10:24:51;;;;;;;2.20;1.20;;;15.70;78.90;;;;;;4915627;29;20209;-73
2022/04/17 10:27:23;;;;;;;1.43;1.10;;;15.70;79.80;;;;;;4915535;29;20300;-72
2022/04/17 10:29:57;;;;;;;1.70;1.10;;;15.70;80.00;;;;;;4914978;29;20240;-74
2022/04/17 10:32:52;;;;;;;1.70;1.10;;;15.70;79.90;;;;;;4915292;29;20269;-73
2022/04/17 10:35:27;;;;;;;1.70;1.20;;;15.80;79.80;;;;;;4916982;29;20210;-73
2022/04/17 10:38:24;;;;;;;1.67;1.17;;;15.70;77.30;;;;;;4916570;29;20539;-73
2022/04/17 10:40:54;;;;;;;2.00;1.30;;;15.70;78.90;;;;;;4916434;29;20218;-74
2022/04/17 10:43:21;;;;;;;1.83;1.00;;;15.70;79.30;;;;;;4916785;29;20214;-74
2022/04/17 10:46:12;;;;;;;1.97;1.13;;;15.90;79.10;;;;;;4916500;29;20214;-74
2022/04/17 10:48:43;;;;;;;1.90;1.10;;;15.90;77.70;;;;;;4916577;29;20236;-73
2022/04/17 10:51:20;;;;;;;1.50;1.10;;;16.00;77.90;;;;;;4916195;29;20289;-74
2022/04/17 10:53:51;;;;;;;2.77;1.30;;;16.20;78.90;;;;;;4916181;29;20213;-73
2022/04/17 10:56:19;;;;;;;1.83;1.10;;;16.30;79.00;;;;;;4916381;29;20292;-73
2022/04/17 10:58:51;;;;;;;1.40;0.80;;;16.60;78.30;;;;;;4916669;29;20220;-74
2022/04/17 11:01:52;;;;;;;1.80;1.20;;;16.60;76.70;;;;;;4916506;29;20255;-74
2022/04/17 11:04:21;;;;;;;1.93;1.47;;;16.60;77.90;;;;;;4916886;29;20607;-75
2022/04/17 11:06:53;;;;;;;1.80;1.23;;;16.70;78.00;;;;;;4916500;29;20224;-75
2022/04/17 11:09:21;;;;;;;2.50;1.20;;;16.60;78.00;;;;;;4915792;29;20644;-76
2022/04/17 11:11:48;;;;;;;2.43;1.57;;;16.50;79.00;;;;;;4916501;29;20256;-73
2022/04/17 11:14:19;;;;;;;1.33;1.10;;;16.60;78.50;;;;;;4919811;29;20296;-74
2022/04/17 11:16:49;;;;;;;2.53;1.43;;;16.70;77.90;;;;;;4919380;29;20214;-74
2022/04/17 11:19:19;;;;;;;2.37;1.50;;;16.50;77.90;;;;;;4920172;29;20213;-76
2022/04/17 11:21:47;;;;;;;2.00;1.40;;;16.40;79.30;;;;;;4920280;29;20295;-75
2022/04/17 11:24:14;;;;;;;2.50;1.40;;;16.40;79.60;;;;;;4919985;29;20578;-74
2022/04/17 11:27:10;;;;;;;2.97;1.60;;;16.70;80.20;;;;;;4920039;29;20671;-76
2022/04/17 11:29:39;;;;;;;1.90;1.50;;;16.80;79.10;;;;;;4919945;29;20268;-74
2022/04/17 11:32:39;;;;;;;2.70;1.97;;;16.90;80.70;;;;;;4919755;29;20255;-76
2022/04/17 11:35:08;;;;;;;2.17;1.53;;;16.90;81.30;;;;;;4919448;29;20670;-74
2022/04/17 11:37:36;;;;;;;2.73;1.50;;;17.00;81.70;;;;;;4919699;29;20205;-74
2022/04/17 11:40:10;;;;;;;2.43;1.70;;;17.00;81.40;;;;;;4919697;29;20218;-75
2022/04/17 11:42:42;;;;;;;4.33;2.00;;;17.10;81.20;;;;;;4919632;29;20225;-75
2022/04/17 11:45:10;;;;;;;2.00;1.50;;;17.10;81.50;;;;;;4919905;29;20213;-76
2022/04/17 11:47:39;;;;;;;2.17;1.60;;;17.30;81.40;;;;;;4919843;29;20570;-74
2022/04/17 11:50:09;;;;;;;2.40;1.73;;;17.30;79.70;;;;;;4919828;29;20737;-75
2022/04/17 11:52:37;;;;;;;2.03;1.70;;;16.90;77.80;;;;;;4919378;29;20575;-73
2022/04/17 11:55:05;;;;;;;2.23;1.80;;;17.00;81.00;;;;;;4919659;29;20206;-76
2022/04/17 11:57:32;;;;;;;4.97;2.20;;;17.20;79.60;;;;;;4919242;29;20206;-75
2022/04/17 12:00:00;;;;;;;2.63;1.70;;;17.10;80.00;;;;;;4919591;29;20256;-75
2022/04/17 12:02:28;;;;;;;2.30;1.60;;;17.10;78.40;;;;;;4919288;29;20229;-74
2022/04/17 12:04:56;;;;;;;2.47;1.70;;;17.00;79.10;;;;;;4919230;29;20213;-75
2022/04/17 12:07:27;;;;;;;1.87;1.50;;;17.10;80.40;;;;;;4919177;29;20232;-73
2022/04/17 12:10:04;;;;;;;2.60;1.53;;;17.10;78.50;;;;;;4919246;29;20725;-73
2022/04/17 12:12:34;;;;;;;2.00;1.53;;;17.10;78.90;;;;;;4919374;29;20542;-72
2022/04/17 12:15:03;;;;;;;2.97;1.60;;;17.30;82.20;;;;;;4919270;29;20634;-73
2022/04/17 12:17:31;;;;;;;2.47;1.80;;;17.50;81.60;;;;;;4918920;29;20213;-73
2022/04/17 12:19:58;;;;;;;2.47;1.80;;;17.70;78.00;;;;;;4919053;29;20206;-72
2022/04/17 12:22:26;;;;;;;2.60;1.60;;;17.60;76.90;;;;;;4919202;29;20226;-75
2022/04/17 12:24:54;;;;;;;2.57;1.70;;;17.50;77.90;;;;;;4918393;29;20228;-74
2022/04/17 12:27:22;;;;;;;5.30;1.70;;;17.50;77.50;;;;;;4918739;29;20210;-72
2022/04/17 12:29:49;;;;;;;2.70;1.83;;;17.60;78.00;;;;;;4918457;29;20229;-74
2022/04/17 12:32:17;;;;;;;3.03;1.90;;;17.50;76.70;;;;;;4918254;29;20233;-75
2022/04/17 12:34:45;;;;;;;4.87;1.90;;;17.60;78.50;;;;;;4919017;29;20205;-74
2022/04/17 12:37:21;;;;;;;2.43;1.80;;;17.70;77.60;;;;;;4918934;29;20216;-71
2022/04/17 12:39:49;;;;;;;4.00;2.00;;;17.60;76.70;;;;;;4918980;29;20265;-75
2022/04/17 12:42:17;;;;;;;2.27;1.60;;;17.70;77.30;;;;;;4918754;29;20260;-72
2022/04/17 12:44:44;;;;;;;2.83;1.73;;;17.90;78.40;;;;;;4918499;29;20212;-74
2022/04/17 12:47:12;;;;;;;2.23;1.50;;;17.90;75.70;;;;;;4918707;29;20209;-73
2022/04/17 12:49:39;;;;;;;2.27;1.50;;;17.90;74.80;;;;;;4918801;29;20288;-75
2022/04/17 12:52:07;;;;;;;4.17;1.43;;;17.90;76.70;;;;;;4918534;29;20233;-76
2022/04/17 12:54:36;;;;;;;2.20;1.33;;;18.00;73.60;;;;;;4918692;29;20299;-73
2022/04/17 12:57:05;;;;;;;2.33;1.70;;;18.00;73.70;;;;;;4918338;29;20209;-74
2022/04/17 12:59:42;;;;;;;3.03;1.53;;;18.00;76.00;;;;;;4918367;29;20218;-74
2022/04/17 13:02:13;;;;;;;2.07;1.23;;;18.20;75.90;;;;;;4918672;29;20261;-73
2022/04/17 13:04:44;;;;;;;2.70;1.43;;;18.10;74.00;;;;;;4918508;29;20261;-75
2022/04/17 13:07:13;;;;;;;1.57;1.10;;;18.20;70.70;;;;;;4918329;29;20212;-74
2022/04/17 13:09:50;;;;;;;1.90;1.40;;;18.20;68.30;;;;;;4918326;29;20789;-75
2022/04/17 13:12:32;;;;;;;3.20;1.20;;;18.30;69.50;;;;;;4917969;29;20284;-74
2022/04/17 13:15:00;;;;;;;2.27;1.30;;;18.10;71.80;;;;;;4918338;29;20217;-71
2022/04/17 13:17:26;;;;;;;2.00;1.20;;;18.20;73.90;;;;;;4918078;29;20214;-73
2022/04/17 13:19:53;;;;;;;1.63;1.10;;;18.20;70.50;;;;;;4918150;29;20210;-73
2022/04/17 13:22:20;;;;;;;2.53;1.20;;;18.20;70.20;;;;;;4918124;29;20230;-75
2022/04/17 13:24:47;;;;;;;2.70;1.40;;;18.50;71.20;;;;;;4917753;29;20670;-74
2022/04/17 13:27:14;;;;;;;1.80;1.17;;;18.50;69.90;;;;;;4918266;29;20674;-73
2022/04/17 13:29:44;;;;;;;1.73;1.10;;;18.40;72.00;;;;;;4918065;29;20236;-74
2022/04/17 13:32:11;;;;;;;2.53;1.23;;;18.40;71.00;;;;;;4917833;29;20586;-71
2022/04/17 13:34:39;;;;;;;1.90;1.30;;;18.40;71.80;;;;;;4917735;29;20765;-73
2022/04/17 13:39:50;;;;;;;1.27;0.97;;;18.20;70.60;;;;;;4917754;29;20710;-70
2022/04/17 13:42:17;;;;;;;1.67;1.17;;;18.30;69.80;;;;;;4917762;29;20632;-72
2022/04/17 13:44:45;;;;;;;1.30;1.00;;;18.50;69.80;;;;;;4917582;29;20210;-75
2022/04/17 13:47:11;;;;;;;1.27;1.00;;;18.70;68.30;;;;;;4916830;29;20206;-73
2022/04/17 13:49:38;;;;;;;1.58;1.20;;;18.90;71.40;;;;;;4917749;29;20237;-71
2022/04/17 13:52:06;;;;;;;1.77;1.00;;;19.10;71.10;;;;;;4917488;29;20234;-74
2022/04/17 13:54:33;;;;;;;3.10;1.40;;;19.10;72.60;;;;;;4917208;29;20217;-75
2022/04/17 13:57:00;;;;;;;3.10;1.02;;;19.10;71.00;;;;;;4917226;29;20214;-71
2022/04/17 13:59:27;;;;;;;1.20;1.10;;;19.10;70.80;;;;;;4917414;29;20217;-74
2022/04/17 14:01:55;;;;;;;2.00;1.15;;;19.10;70.50;;;;;;4917155;29;20229;-74
2022/04/17 14:04:22;;;;;;;1.90;1.20;;;19.20;69.20;;;;;;4917664;29;20243;-71
2022/04/17 14:06:49;;;;;;;1.52;1.15;;;19.10;69.70;;;;;;4917577;29;20236;-75
2022/04/17 14:09:16;;;;;;;1.50;1.20;;;19.20;70.40;;;;;;4917369;29;20213;-71
2022/04/17 14:11:45;;;;;;;1.92;1.25;;;19.30;68.50;;;;;;4932944;23;20229;-76
2022/04/17 14:14:12;;;;;;;2.55;1.40;;;19.20;69.70;;;;;;4916861;29;20225;-72
2022/04/17 14:16:39;;;;;;;1.48;1.23;;;19.30;69.70;;;;;;4916959;29;20213;-68
2022/04/17 14:19:08;;;;;;;1.00;0.75;;;19.20;69.70;;;;;;4916903;29;20225;-68
2022/04/17 14:21:35;;;;;;;1.77;1.10;;;19.20;67.30;;;;;;4916584;29;20710;-69
2022/04/17 14:24:02;;;;;;;1.05;0.95;;;19.10;65.80;;;;;;4916920;29;20209;-76
2022/04/17 14:26:28;;;;;;;2.13;1.00;;;19.10;67.30;;;;;;4917000;29;20209;-71
2022/04/17 14:28:55;;;;;;;1.83;1.25;;;19.30;68.80;;;;;;4917086;29;20210;-77
2022/04/17 14:31:22;;;;;;;1.65;1.10;;;19.30;68.90;;;;;;4916846;29;20252;-69
2022/04/17 14:33:50;;;;;;;1.70;1.20;;;19.30;69.30;;;;;;4917145;29;20210;-74
2022/04/17 14:36:18;;;;;;;1.08;0.85;;;19.30;70.50;;;;;;4917025;29;20209;-70
2022/04/17 14:38:45;;;;;;;1.08;0.90;;;19.30;67.40;;;;;;4916809;29;20213;-68
2022/04/17 14:41:13;;;;;;;1.55;1.20;;;19.50;69.10;;;;;;4917021;29;20309;-76
2022/04/17 14:43:40;;;;;;;1.00;0.90;;;19.60;66.30;;;;;;4916733;29;20766;-74
2022/04/17 14:46:07;;;;;;;2.35;0.90;;;19.60;66.50;;;;;;4916472;29;20209;-73
2022/04/17 14:48:34;;;;;;;1.00;0.90;;;19.50;66.40;;;;;;4916487;29;20214;-69
2022/04/17 14:51:02;;;;;;;2.75;1.25;;;19.60;66.30;;;;;;4916618;29;20245;-74
2022/04/17 14:53:31;;;;;;;1.50;1.00;;;19.60;68.20;;;;;;4916626;29;20209;-73
2022/04/17 14:55:58;;;;;;;2.08;1.25;;;19.60;68.00;;;;;;4916388;29;20217;-69
2022/04/17 14:58:25;;;;;;;1.35;1.10;;;19.40;67.20;;;;;;4916807;29;20216;-76
2022/04/17 15:00:52;;;;;;;1.83;1.10;;;19.30;68.50;;;;;;4916270;29;20221;-69
2022/04/17 15:03:19;;;;;;;2.08;1.10;;;19.30;67.30;;;;;;4916273;29;20209;-74
2022/04/17 15:05:46;;;;;;;1.40;1.02;;;19.30;66.90;;;;;;4916502;29;20218;-71
2022/04/17 15:08:13;;;;;;;1.85;1.20;;;19.30;68.90;;;;;;4916684;29;20213;-76
2022/04/17 15:10:41;;;;;;;1.30;0.90;;;19.30;68.00;;;;;;4916245;29;20241;-75
2022/04/17 15:13:10;;;;;;;1.38;0.90;;;19.50;69.10;;;;;;4916207;29;20221;-69
2022/04/17 15:15:37;;;;;;;1.52;0.85;;;19.50;66.90;;;;;;4916275;29;20261;-76
2022/04/17 15:18:04;;;;;;;2.35;1.20;;;19.50;68.20;;;;;;4916002;29;20221;-77
2022/04/17 15:20:31;;;;;;;1.05;0.95;;;19.40;66.40;;;;;;4916219;29;20209;-69
2022/04/17 15:22:58;;;;;;;1.13;0.82;;;19.30;66.40;;;;;;4916446;29;20237;-77
2022/04/17 15:25:25;;;;;;;1.50;1.00;;;19.30;66.70;;;;;;4916390;29;20210;-68
2022/04/17 15:27:53;;;;;;;0.90;0.80;;;19.30;67.50;;;;;;4916345;29;20218;-68
2022/04/17 15:30:20;;;;;;;1.60;1.10;;;19.30;67.40;;;;;;4916298;29;20332;-68
2022/04/17 15:32:47;;;;;;;1.65;0.93;;;19.30;67.10;;;;;;4916369;29;20240;-69
2022/04/17 15:35:14;;;;;;;2.28;1.13;;;19.40;68.60;;;;;;4916137;29;20217;-74
2022/04/17 15:37:41;;;;;;;1.95;0.65;;;19.40;67.30;;;;;;4916159;29;20209;-70
2022/04/17 15:40:09;;;;;;;1.10;0.80;;;19.50;67.50;;;;;;4915892;29;20216;-69
2022/04/17 15:42:38;;;;;;;0.90;0.73;;;19.50;66.90;;;;;;4915951;29;20671;-69
2022/04/17 15:47:55;;;;;;;1.77;0.93;;;19.40;66.10;;;;;;4916322;29;20686;-76
2022/04/17 15:50:22;;;;;;;1.00;0.60;;;19.40;65.50;;;;;;4915853;29;20335;-73
2022/04/17 15:52:50;;;;;;;2.83;0.63;;;19.30;66.40;;;;;;4916027;29;20321;-68
2022/04/17 15:55:17;;;;;;;1.50;0.85;;;19.40;67.40;;;;;;4916071;29;20221;-69
2022/04/17 15:57:44;;;;;;;1.48;0.75;;;19.40;66.40;;;;;;4916050;29;20220;-78
2022/04/17 16:00:14;;;;;;;1.13;0.80;;;19.40;66.80;;;;;;4916845;29;20556;-73
2022/04/17 16:02:42;;;;;;;1.20;0.70;;;19.50;66.90;;;;;;4918586;29;20241;-68
2022/04/17 16:05:09;;;;;;;1.63;0.90;;;19.40;65.50;;;;;;4919140;29;20214;-77
2022/04/17 16:07:39;;;;;;;1.75;1.10;;;19.30;66.70;;;;;;4919635;29;20217;-77
2022/04/17 16:10:07;;;;;;;1.50;0.93;;;19.20;65.70;;;;;;4919573;29;20229;-69
2022/04/17 16:12:34;;;;;;;1.15;0.52;;;19.20;66.50;;;;;;4919458;29;20237;-77
2022/04/17 16:15:01;;;;;;;2.10;0.70;;;19.20;67.10;;;;;;4915358;29;20300;-69
2022/04/17 16:17:31;;;;;;;1.15;0.80;;;19.30;67.50;;;;;;4918798;29;20340;-77
2022/04/17 16:19:58;;;;;;;2.83;0.70;;;19.30;65.70;;;;;;4922522;29;20210;-79
2022/04/17 16:22:25;;;;;;;0.88;0.68;;;19.20;66.30;;;;;;4922930;29;20222;-79
2022/04/17 16:24:51;;;;;;;0.85;0.60;;;19.20;65.60;;;;;;4921292;29;20245;-78
2022/04/17 16:27:18;;;;;;;0.90;0.60;;;19.20;67.00;;;;;;4920719;29;20235;-80
2022/04/17 16:29:45;;;;;;;0.98;0.70;;;19.20;65.90;;;;;;4919295;29;20221;-78
2022/04/17 16:32:12;;;;;;;0.90;0.70;;;19.20;67.50;;;;;;4918744;29;20237;-79
2022/04/17 16:34:40;;;;;;;1.10;0.70;;;19.40;65.70;;;;;;4918546;29;20210;-78
2022/04/17 16:37:08;;;;;;;0.85;0.70;;;19.40;66.40;;;;;;4921142;29;20281;-76
2022/04/17 16:39:34;;;;;;;1.17;0.90;;;19.40;67.10;;;;;;4919965;29;20218;-77
2022/04/17 16:42:01;;;;;;;1.35;0.65;;;19.40;66.70;;;;;;4918251;29;20255;-78
2022/04/17 16:44:28;;;;;;;1.73;0.57;;;19.50;67.30;;;;;;4918581;29;20210;-76
2022/04/17 16:46:55;;;;;;;0.80;0.70;;;19.40;67.40;;;;;;4918528;29;20291;-76
2022/04/17 16:49:22;;;;;;;1.00;0.60;;;19.30;67.30;;;;;;4918740;29;20282;-76
2022/04/17 16:51:50;;;;;;;1.83;0.75;;;19.30;65.20;;;;;;4918244;29;20245;-77
2022/04/17 16:54:17;;;;;;;1.15;0.85;;;19.40;66.50;;;;;;4918536;29;20213;-78
2022/04/17 16:56:44;;;;;;;0.60;0.50;;;19.40;66.90;;;;;;4918544;29;20651;-76
2022/04/17 16:59:12;;;;;;;0.80;0.60;;;19.30;66.50;;;;;;4918294;29;20206;-78
2022/04/17 17:01:39;;;;;;;0.90;0.60;;;19.30;67.60;;;;;;4918070;29;20245;-77
2022/04/17 17:04:06;;;;;;;1.40;0.77;;;19.30;66.70;;;;;;4918575;29;20210;-77
2022/04/17 17:06:34;;;;;;;0.75;0.60;;;19.20;66.30;;;;;;4918188;29;20217;-78
2022/04/17 17:09:02;;;;;;;3.72;0.68;;;19.20;67.20;;;;;;4918045;29;20210;-77
2022/04/17 17:11:29;;;;;;;1.17;0.60;;;19.20;66.90;;;;;;4917845;29;20237;-76
2022/04/17 17:13:56;;;;;;;0.50;0.40;;;19.30;66.90;;;;;;4918144;29;20214;-77
2022/04/17 17:16:23;;;;;;;0.85;0.50;;;19.20;67.10;;;;;;4917652;29;20209;-78
2022/04/17 17:18:49;;;;;;;1.40;0.50;;;19.10;66.10;;;;;;4917982;29;20208;-76
2022/04/17 17:21:16;;;;;;;0.60;0.50;;;19.10;68.50;;;;;;4917947;29;20233;-73
2022/04/17 17:23:43;;;;;;;0.70;0.55;;;19.20;66.60;;;;;;4917945;29;20213;-76
2022/04/17 17:26:12;;;;;;;1.00;0.60;;;19.10;66.90;;;;;;4917354;29;20210;-72
2022/04/17 17:28:39;;;;;;;2.33;0.57;;;19.10;66.50;;;;;;4917781;29;20210;-78
2022/04/17 17:31:06;;;;;;;0.70;0.50;;;19.10;66.90;;;;;;4917414;29;20309;-72
2022/04/17 17:33:33;;;;;;;0.82;0.70;;;19.10;68.10;;;;;;4917549;29;20212;-77
2022/04/17 17:36:03;;;;;;;1.02;0.50;;;19.10;67.80;;;;;;4917305;29;20216;-76
2022/04/17 17:38:31;;;;;;;1.42;0.80;;;19.00;68.70;;;;;;4917516;29;20270;-75
2022/04/17 17:40:58;;;;;;;1.02;0.55;;;18.90;68.80;;;;;;4917356;29;20226;-77
2022/04/17 17:43:27;;;;;;;1.80;0.68;;;18.80;68.70;;;;;;4917126;29;20665;-72
2022/04/17 17:45:55;;;;;;;1.50;0.82;;;18.80;70.20;;;;;;4917663;29;20209;-78
2022/04/17 17:48:22;;;;;;;3.03;0.60;;;18.80;69.20;;;;;;4917295;29;20209;-77
2022/04/17 17:50:49;;;;;;;1.80;0.40;;;18.60;68.60;;;;;;4917798;29;20282;-71
2022/04/17 17:53:16;;;;;;;1.08;0.47;;;18.60;69.00;;;;;;4917176;29;20273;-77
2022/04/17 17:55:43;;;;;;;1.07;0.40;;;18.60;69.40;;;;;;4917690;29;20210;-78
2022/04/17 17:58:09;;;;;;;1.20;0.47;;;18.60;70.00;;;;;;4917378;29;20212;-70
2022/04/17 18:00:38;;;;;;;0.60;0.50;;;18.50;69.80;;;;;;4917105;29;20296;-76
2022/04/17 18:03:05;;;;;;;0.95;0.50;;;18.50;70.20;;;;;;4917368;29;20213;-76
2022/04/17 18:05:32;;;;;;;0.97;0.60;;;18.40;69.80;;;;;;4917088;29;20674;-71
2022/04/17 18:16:17;;;;;;;0.70;0.52;;;18.20;71.60;;;;;;4917032;29;20603;-76
2022/04/17 18:18:44;;;;;;;1.02;0.50;;;18.10;71.60;;;;;;4917110;29;20221;-76
2022/04/17 18:21:12;;;;;;;2.40;0.57;;;18.00;71.50;;;;;;4916978;29;20234;-77
2022/04/17 18:23:40;;;;;;;0.60;0.40;;;17.90;72.00;;;;;;4916386;29;20213;-76
2022/04/17 18:26:07;;;;;;;0.70;0.60;;;17.70;71.90;;;;;;4916302;29;20206;-70
2022/04/17 18:28:34;;;;;;;1.03;0.80;;;17.60;72.70;;;;;;4916501;29;20210;-76
2022/04/17 18:31:01;;;;;;;0.60;0.40;;;17.50;72.80;;;;;;4916396;29;20241;-72
2022/04/17 18:33:29;;;;;;;1.33;0.70;;;17.40;73.60;;;;;;4916943;29;20213;-77
2022/04/17 18:35:57;;;;;;;1.00;0.60;;;17.30;73.70;;;;;;4916854;29;20210;-69
2022/04/17 18:38:24;;;;;;;1.17;0.70;;;17.20;74.90;;;;;;4916902;29;20265;-69
2022/04/17 18:40:53;;;;;;;1.20;0.60;;;17.10;75.50;;;;;;4916557;29;20216;-75
2022/04/17 18:43:20;;;;;;;1.60;0.80;;;17.00;76.10;;;;;;4916794;29;20237;-76
2022/04/17 18:45:48;;;;;;;1.50;0.60;;;16.80;76.80;;;;;;4916977;29;20209;-74
2022/04/17 18:48:15;;;;;;;2.13;0.63;;;16.70;79.30;;;;;;4916706;29;20214;-76
2022/04/17 18:50:43;;;;;;;1.47;0.60;;;16.60;77.70;;;;;;4916315;29;20204;-70
2022/04/17 18:53:11;;;;;;;0.97;0.70;;;16.50;79.10;;;;;;4915914;29;20206;-77
2022/04/17 18:55:39;;;;;;;0.47;0.40;;;16.40;78.90;;;;;;4916443;29;20245;-77
2022/04/17 18:58:06;;;;;;;0.63;0.60;;;16.30;79.30;;;;;;4910563;29;20305;-77
2022/04/17 19:00:34;;;;;;;1.20;0.70;;;16.20;80.40;;;;;;4916159;29;20209;-77
2022/04/17 19:03:00;;;;;;;0.83;0.60;;;16.20;83.40;;;;;;4915135;29;20257;-77
2022/04/17 19:05:28;;;;;;;1.60;0.70;;;16.00;80.30;;;;;;4905016;29;20216;-70
2022/04/17 19:07:57;;;;;;;1.87;0.73;;;15.90;80.20;;;;;;4901688;29;20262;-77
2022/04/17 19:10:24;;;;;;;1.27;0.60;;;15.70;80.60;;;;;;4900030;29;20218;-77
2022/04/17 19:15:35;;;;;;;0.87;0.60;;;15.70;82.00;;;;;;4910109;29;20628;-76
2022/04/17 19:18:02;;;;;;;1.10;0.70;;;15.60;81.50;;;;;;4903332;29;20205;-71
2022/04/17 19:20:29;;;;;;;1.30;0.63;;;15.40;81.30;;;;;;4903206;29;20217;-77
2022/04/17 19:22:58;;;;;;;1.63;0.80;;;15.40;80.70;;;;;;4905367;29;20236;-77
2022/04/17 19:25:24;;;;;;;1.53;0.67;;;15.40;80.60;;;;;;4903012;29;20563;-67
2022/04/17 19:27:51;;;;;;;0.67;0.57;;;15.40;80.40;;;;;;4905660;29;20236;-68
2022/04/17 19:30:18;;;;;;;2.40;1.20;;;15.40;81.20;;;;;;4912944;29;20210;-68
2022/04/17 19:35:29;;;;;;;3.43;0.60;;;15.30;80.60;;;;;;4905337;29;20224;-76
2022/04/17 19:37:57;;;;;;;2.10;1.03;;;15.20;81.00;;;;;;4910186;29;20210;-68
2022/04/17 19:40:25;;;;;;;1.00;0.60;;;15.10;82.00;;;;;;4908449;29;20206;-72
2022/04/17 19:42:51;;;;;;;1.33;0.70;;;15.00;81.30;;;;;;4915787;29;20240;-68
2022/04/17 19:45:22;;;;;;;1.10;0.67;;;15.00;81.20;;;;;;4910618;29;20232;-71
2022/04/17 19:47:50;;;;;;;2.43;0.90;;;14.90;82.10;;;;;;4909448;29;20348;-68
2022/04/17 19:50:18;;;;;;;1.70;0.80;;;14.90;82.20;;;;;;4911931;29;20221;-67
2022/04/17 19:52:44;;;;;;;1.23;0.80;;;14.80;81.50;;;;;;4906423;29;20248;-68
2022/04/17 19:55:13;;;;;;;1.33;0.77;;;14.70;81.60;;;;;;4907702;29;20202;-68
2022/04/17 19:57:39;;;;;;;2.10;0.60;;;14.60;81.80;;;;;;4901945;29;20214;-73
2022/04/17 20:00:08;;;;;;;0.80;0.60;;;14.60;81.80;;;;;;4912464;29;20207;-76
2022/04/17 20:02:34;;;;;;;0.70;0.57;;;14.50;83.60;;;;;;4912394;29;20242;-76
2022/04/17 20:05:01;;;;;;;1.20;0.70;;;14.50;82.00;;;;;;4910764;29;20575;-75
2022/04/17 20:07:28;;;;;;;1.27;0.77;;;14.40;81.40;;;;;;4913205;29;20216;-70
2022/04/17 20:09:56;;;;;;;1.60;0.90;;;14.40;81.30;;;;;;4913830;29;20203;-71
2022/04/17 20:12:24;;;;;;;1.33;0.93;;;14.30;82.50;;;;;;4913649;29;20245;-75
2022/04/17 20:14:51;;;;;;;1.27;0.80;;;14.20;81.00;;;;;;4906694;29;20203;-75
2022/04/17 20:17:18;;;;;;;0.83;0.60;;;14.20;82.90;;;;;;4902110;29;20663;-74
2022/04/17 20:19:45;;;;;;;1.43;0.90;;;14.10;81.80;;;;;;4904464;29;20567;-75
2022/04/17 20:22:11;;;;;;;1.80;0.73;;;14.00;81.20;;;;;;4904813;29;20222;-68
2022/04/17 20:24:38;;;;;;;1.23;0.60;;;14.00;82.50;;;;;;4904850;29;20698;-76
2022/04/17 20:27:06;;;;;;;1.70;0.70;;;13.90;81.70;;;;;;4902479;29;20210;-74
2022/04/17 20:29:35;;;;;;;1.07;0.67;;;13.90;80.60;;;;;;4903874;29;20206;-75
2022/04/17 20:32:02;;;;;;;0.90;0.70;;;13.90;81.20;;;;;;4900310;29;20297;-72
2022/04/17 20:34:29;;;;;;;1.60;0.63;;;13.90;80.10;;;;;;4909125;29;20214;-76
2022/04/17 20:36:57;;;;;;;1.13;0.80;;;13.90;80.80;;;;;;4912558;29;20210;-75
2022/04/17 20:39:25;;;;;;;2.60;0.70;;;13.80;81.60;;;;;;4916002;29;20217;-77
2022/04/17 20:41:51;;;;;;;1.70;1.20;;;13.80;80.70;;;;;;4904276;29;20365;-77
2022/04/17 20:52:33;;;;;;;4.90;0.80;;;13.50;83.90;;;;;;4905702;29;20241;-76
2022/04/17 20:55:00;;;;;;;2.30;1.20;;;13.50;84.70;;;;;;4907072;29;20213;-71
2022/04/17 20:57:27;;;;;;;2.00;0.70;;;13.50;87.90;;;;;;4906707;29;20226;-68
2022/04/17 20:59:54;;;;;;;1.10;0.77;;;13.40;87.40;;;;;;4907066;29;20297;-75
2022/04/17 21:02:22;;;;;;;0.60;0.50;;;13.30;87.90;;;;;;4907892;29;20221;-75
2022/04/17 21:04:49;;;;;;;2.33;0.53;;;13.20;88.20;;;;;;4906519;29;20239;-75
2022/04/17 21:07:16;;;;;;;0.63;0.47;;;13.10;86.80;;;;;;4907358;29;20232;-74
2022/04/17 21:09:43;;;;;;;1.90;0.70;;;13.00;87.20;;;;;;4909658;29;20672;-76
2022/04/17 21:12:10;;;;;;;0.83;0.50;;;13.00;90.20;;;;;;4905170;29;20245;-74
2022/04/17 21:14:37;;;;;;;1.37;0.50;;;12.80;90.60;;;;;;4909378;29;20222;-72
2022/04/17 21:17:04;;;;;;;1.13;0.50;;;12.80;90.90;;;;;;4906803;29;20244;-74
2022/04/17 21:19:32;;;;;;;0.53;0.40;;;12.60;90.40;;;;;;4905577;29;20218;-76
2022/04/17 21:22:00;;;;;;;0.73;0.50;;;12.50;90.90;;;;;;4904738;29;20763;-68
2022/04/17 21:24:27;;;;;;;2.87;0.50;;;12.50;92.10;;;;;;4911032;29;20214;-76
2022/04/17 21:26:54;;;;;;;0.70;0.50;;;12.40;92.20;;;;;;4908344;29;20209;-75
2022/04/17 21:29:20;;;;;;;0.83;0.50;;;12.30;92.20;;;;;;4902552;29;20679;-74
2022/04/17 21:31:49;;;;;;;0.50;0.40;;;12.20;92.90;;;;;;4903594;29;20241;-68
2022/04/17 21:34:16;;;;;;;1.20;0.80;;;12.10;92.20;;;;;;4911852;29;20305;-70
2022/04/17 21:36:44;;;;;;;1.67;0.70;;;12.10;92.40;;;;;;4909989;29;20217;-68